URMT 150730Z 07006MPS CAVOK 30/10 Q1012 WS R07 R07/010070 NOSIG RMK QFE719
QNH:(hPa/inHg/mmHg)1012 / 29.88 / 759
QFE:(hPa/inHg/mmHg)957 / 28.26 / 718
Temperature30
Dew Point10
Visibility> 10000
WeatherCAVOK
Cloud Cover
Transition Altitude5000 ft.
Transition LevelFL70
SQUAWK